sensor_id;sensor_type;location;lat;lon;timestamp;P1;durP1;ratioP1;P2;durP2;ratioP2
31224;SDS011;17847;31.524;74.366;2023-04-12T00:02:03;54.95;;;29.70;;
31224;SDS011;17847;31.524;74.366;2023-04-12T00:04:34;63.40;;;30.58;;
31224;SDS011;17847;31.524;74.366;2023-04-12T00:07:04;57.28;;;31.55;;
31224;SDS011;17847;31.524;74.366;2023-04-12T00:09:34;51.08;;;29.67;;
31224;SDS011;17847;31.524;74.366;2023-04-12T00:12:05;67.20;;;32.15;;
31224;SDS011;17847;31.524;74.366;2023-04-12T00:14:35;62.03;;;30.73;;
31224;SDS011;17847;31.524;74.366;2023-04-12T00:17:04;59.03;;;32.20;;
31224;SDS011;17847;31.524;74.366;2023-04-12T00:19:34;63.70;;;32.05;;
31224;SDS011;17847;31.524;74.366;2023-04-12T00:22:04;59.42;;;31.55;;
31224;SDS011;17847;31.524;74.366;2023-04-12T00:24:33;67.32;;;30.80;;
31224;SDS011;17847;31.524;74.366;2023-04-12T00:27:03;57.30;;;30.83;;
31224;SDS011;17847;31.524;74.366;2023-04-12T00:29:34;54.10;;;30.88;;
31224;SDS011;17847;31.524;74.366;2023-04-12T00:32:04;66.47;;;30.63;;
31224;SDS011;17847;31.524;74.366;2023-04-12T00:34:33;58.40;;;29.77;;
31224;SDS011;17847;31.524;74.366;2023-04-12T00:37:03;61.75;;;30.33;;
31224;SDS011;17847;31.524;74.366;2023-04-12T00:39:32;51.58;;;29.30;;
31224;SDS011;17847;31.524;74.366;2023-04-12T00:42:02;49.85;;;28.73;;
31224;SDS011;17847;31.524;74.366;2023-04-12T00:44:32;56.85;;;28.45;;
31224;SDS011;17847;31.524;74.366;2023-04-12T00:47:03;50.97;;;27.73;;
31224;SDS011;17847;31.524;74.366;2023-04-12T00:49:33;55.03;;;28.65;;
31224;SDS011;17847;31.524;74.366;2023-04-12T00:52:03;50.83;;;28.23;;
31224;SDS011;17847;31.524;74.366;2023-04-12T00:54:36;55.85;;;28.52;;
31224;SDS011;17847;31.524;74.366;2023-04-12T00:57:06;55.55;;;28.63;;
31224;SDS011;17847;31.524;74.366;2023-04-12T00:59:35;61.60;;;30.35;;
31224;SDS011;17847;31.524;74.366;2023-04-12T01:02:04;57.85;;;29.05;;
31224;SDS011;17847;31.524;74.366;2023-04-12T01:04:35;49.40;;;28.48;;
31224;SDS011;17847;31.524;74.366;2023-04-12T01:10:08;53.38;;;29.50;;
31224;SDS011;17847;31.524;74.366;2023-04-12T01:15:57;57.03;;;28.90;;
31224;SDS011;17847;31.524;74.366;2023-04-12T01:18:48;48.35;;;27.83;;
31224;SDS011;17847;31.524;74.366;2023-04-12T01:21:35;52.63;;;28.73;;
31224;SDS011;17847;31.524;74.366;2023-04-12T01:25:03;57.65;;;27.85;;
31224;SDS011;17847;31.524;74.366;2023-04-12T01:27:44;53.35;;;29.08;;
31224;SDS011;17847;31.524;74.366;2023-04-12T01:30:24;59.67;;;30.27;;
31224;SDS011;17847;31.524;74.366;2023-04-12T01:32:56;53.33;;;29.45;;
31224;SDS011;17847;31.524;74.366;2023-04-12T01:35:31;55.17;;;28.85;;
31224;SDS011;17847;31.524;74.366;2023-04-12T01:38:02;58.47;;;29.53;;
31224;SDS011;17847;31.524;74.366;2023-04-12T01:40:34;70.85;;;29.40;;
31224;SDS011;17847;31.524;74.366;2023-04-12T01:43:09;51.97;;;28.40;;
31224;SDS011;17847;31.524;74.366;2023-04-12T01:45:41;55.17;;;28.60;;
31224;SDS011;17847;31.524;74.366;2023-04-12T01:48:11;56.42;;;28.13;;
31224;SDS011;17847;31.524;74.366;2023-04-12T01:56:19;64.75;;;28.27;;
31224;SDS011;17847;31.524;74.366;2023-04-12T01:58:52;55.53;;;28.77;;
31224;SDS011;17847;31.524;74.366;2023-04-12T02:01:25;59.47;;;29.48;;
31224;SDS011;17847;31.524;74.366;2023-04-12T02:03:57;55.08;;;28.92;;
31224;SDS011;17847;31.524;74.366;2023-04-12T02:06:28;60.72;;;29.55;;
31224;SDS011;17847;31.524;74.366;2023-04-12T02:09:00;56.25;;;30.58;;
31224;SDS011;17847;31.524;74.366;2023-04-12T02:11:32;68.93;;;29.85;;
31224;SDS011;17847;31.524;74.366;2023-04-12T02:14:02;61.22;;;27.58;;
31224;SDS011;17847;31.524;74.366;2023-04-12T02:16:31;57.58;;;27.67;;
31224;SDS011;17847;31.524;74.366;2023-04-12T02:19:03;58.20;;;28.23;;
31224;SDS011;17847;31.524;74.366;2023-04-12T02:21:43;56.22;;;28.33;;
31224;SDS011;17847;31.524;74.366;2023-04-12T02:24:13;59.97;;;27.73;;
31224;SDS011;17847;31.524;74.366;2023-04-12T02:26:43;68.72;;;28.20;;
31224;SDS011;17847;31.524;74.366;2023-04-12T02:29:14;62.33;;;29.33;;
31224;SDS011;17847;31.524;74.366;2023-04-12T02:31:46;56.10;;;27.40;;
31224;SDS011;17847;31.524;74.366;2023-04-12T02:34:15;57.83;;;28.77;;
31224;SDS011;17847;31.524;74.366;2023-04-12T02:36:51;51.70;;;28.13;;
31224;SDS011;17847;31.524;74.366;2023-04-12T02:39:21;59.55;;;28.08;;
31224;SDS011;17847;31.524;74.366;2023-04-12T02:41:51;58.78;;;29.30;;
31224;SDS011;17847;31.524;74.366;2023-04-12T02:44:21;69.72;;;30.50;;
31224;SDS011;17847;31.524;74.366;2023-04-12T02:47:13;65.97;;;28.98;;
31224;SDS011;17847;31.524;74.366;2023-04-12T02:49:46;70.25;;;29.60;;
31224;SDS011;17847;31.524;74.366;2023-04-12T02:52:17;68.68;;;30.92;;
31224;SDS011;17847;31.524;74.366;2023-04-12T02:54:59;74.75;;;31.17;;
31224;SDS011;17847;31.524;74.366;2023-04-12T02:57:29;73.93;;;31.35;;
31224;SDS011;17847;31.524;74.366;2023-04-12T02:59:58;68.78;;;31.23;;
31224;SDS011;17847;31.524;74.366;2023-04-12T03:02:38;68.35;;;28.90;;
31224;SDS011;17847;31.524;74.366;2023-04-12T03:05:13;61.70;;;29.42;;
31224;SDS011;17847;31.524;74.366;2023-04-12T03:07:45;72.10;;;27.83;;
31224;SDS011;17847;31.524;74.366;2023-04-12T03:10:19;66.45;;;28.02;;
31224;SDS011;17847;31.524;74.366;2023-04-12T03:13:14;57.28;;;25.88;;
31224;SDS011;17847;31.524;74.366;2023-04-12T03:15:47;63.88;;;27.63;;
31224;SDS011;17847;31.524;74.366;2023-04-12T03:18:21;49.97;;;24.88;;
31224;SDS011;17847;31.524;74.366;2023-04-12T03:20:52;47.60;;;24.45;;
31224;SDS011;17847;31.524;74.366;2023-04-12T03:23:21;45.83;;;22.40;;
31224;SDS011;17847;31.524;74.366;2023-04-12T03:26:06;46.60;;;23.15;;
31224;SDS011;17847;31.524;74.366;2023-04-12T03:28:36;47.30;;;22.05;;
31224;SDS011;17847;31.524;74.366;2023-04-12T03:31:06;46.40;;;23.75;;
31224;SDS011;17847;31.524;74.366;2023-04-12T03:33:41;50.58;;;22.70;;
31224;SDS011;17847;31.524;74.366;2023-04-12T03:36:37;39.25;;;23.27;;
31224;SDS011;17847;31.524;74.366;2023-04-12T03:39:21;46.97;;;23.75;;
31224;SDS011;17847;31.524;74.366;2023-04-12T03:41:52;54.33;;;23.92;;
31224;SDS011;17847;31.524;74.366;2023-04-12T03:44:27;54.28;;;24.40;;
31224;SDS011;17847;31.524;74.366;2023-04-12T03:46:58;52.80;;;24.45;;
31224;SDS011;17847;31.524;74.366;2023-04-12T03:49:33;50.50;;;24.13;;
31224;SDS011;17847;31.524;74.366;2023-04-12T03:52:10;53.03;;;24.30;;
31224;SDS011;17847;31.524;74.366;2023-04-12T03:54:43;51.45;;;22.60;;
31224;SDS011;17847;31.524;74.366;2023-04-12T03:57:21;49.53;;;22.13;;
31224;SDS011;17847;31.524;74.366;2023-04-12T03:59:51;58.08;;;21.73;;
31224;SDS011;17847;31.524;74.366;2023-04-12T04:02:25;46.22;;;20.83;;
31224;SDS011;17847;31.524;74.366;2023-04-12T04:04:56;44.15;;;20.23;;
31224;SDS011;17847;31.524;74.366;2023-04-12T04:07:26;43.17;;;19.13;;
31224;SDS011;17847;31.524;74.366;2023-04-12T04:09:56;46.08;;;19.90;;
31224;SDS011;17847;31.524;74.366;2023-04-12T04:12:32;46.15;;;17.58;;
31224;SDS011;17847;31.524;74.366;2023-04-12T04:15:02;44.75;;;16.55;;
31224;SDS011;17847;31.524;74.366;2023-04-12T04:17:32;28.48;;;14.05;;
31224;SDS011;17847;31.524;74.366;2023-04-12T04:20:02;40.58;;;14.32;;
31224;SDS011;17847;31.524;74.366;2023-04-12T04:22:35;36.20;;;11.60;;
31224;SDS011;17847;31.524;74.366;2023-04-12T04:25:05;22.17;;;11.45;;
31224;SDS011;17847;31.524;74.366;2023-04-12T04:27:40;22.63;;;11.60;;
31224;SDS011;17847;31.524;74.366;2023-04-12T04:30:12;32.75;;;13.93;;
31224;SDS011;17847;31.524;74.366;2023-04-12T04:32:46;31.23;;;14.98;;
31224;SDS011;17847;31.524;74.366;2023-04-12T04:35:19;36.58;;;14.68;;
31224;SDS011;17847;31.524;74.366;2023-04-12T04:38:03;29.52;;;13.18;;
31224;SDS011;17847;31.524;74.366;2023-04-12T04:40:37;26.83;;;12.40;;
31224;SDS011;17847;31.524;74.366;2023-04-12T04:43:08;24.10;;;10.20;;
31224;SDS011;17847;31.524;74.366;2023-04-12T04:45:42;22.55;;;10.48;;
31224;SDS011;17847;31.524;74.366;2023-04-12T04:48:13;28.13;;;10.68;;
31224;SDS011;17847;31.524;74.366;2023-04-12T04:50:44;32.58;;;11.88;;
31224;SDS011;17847;31.524;74.366;2023-04-12T04:53:16;29.63;;;11.23;;
31224;SDS011;17847;31.524;74.366;2023-04-12T04:55:48;28.02;;;11.90;;
31224;SDS011;17847;31.524;74.366;2023-04-12T04:58:17;23.73;;;9.68;;
31224;SDS011;17847;31.524;74.366;2023-04-12T05:00:48;26.50;;;9.02;;
31224;SDS011;17847;31.524;74.366;2023-04-12T05:03:17;20.27;;;9.07;;
31224;SDS011;17847;31.524;74.366;2023-04-12T05:05:49;26.05;;;10.57;;
31224;SDS011;17847;31.524;74.366;2023-04-12T05:08:19;15.63;;;9.98;;
31224;SDS011;17847;31.524;74.366;2023-04-12T05:10:50;25.95;;;12.65;;
31224;SDS011;17847;31.524;74.366;2023-04-12T05:13:23;24.10;;;11.38;;
31224;SDS011;17847;31.524;74.366;2023-04-12T05:15:53;26.40;;;11.10;;
31224;SDS011;17847;31.524;74.366;2023-04-12T05:18:22;30.35;;;11.15;;
31224;SDS011;17847;31.524;74.366;2023-04-12T05:20:52;31.05;;;12.75;;
31224;SDS011;17847;31.524;74.366;2023-04-12T05:23:22;38.63;;;13.85;;
31224;SDS011;17847;31.524;74.366;2023-04-12T05:25:52;48.17;;;15.70;;
31224;SDS011;17847;31.524;74.366;2023-04-12T05:28:23;33.58;;;12.77;;
31224;SDS011;17847;31.524;74.366;2023-04-12T05:30:53;33.20;;;14.73;;
31224;SDS011;17847;31.524;74.366;2023-04-12T05:33:31;29.52;;;13.82;;
31224;SDS011;17847;31.524;74.366;2023-04-12T05:36:02;29.42;;;15.23;;
31224;SDS011;17847;31.524;74.366;2023-04-12T05:38:33;43.17;;;15.82;;
31224;SDS011;17847;31.524;74.366;2023-04-12T05:41:09;33.17;;;16.27;;
31224;SDS011;17847;31.524;74.366;2023-04-12T05:43:39;43.42;;;16.02;;
31224;SDS011;17847;31.524;74.366;2023-04-12T05:46:09;32.05;;;15.52;;
31224;SDS011;17847;31.524;74.366;2023-04-12T05:48:41;30.42;;;15.45;;
31224;SDS011;17847;31.524;74.366;2023-04-12T05:51:11;33.42;;;15.88;;
31224;SDS011;17847;31.524;74.366;2023-04-12T05:53:43;35.80;;;16.67;;
31224;SDS011;17847;31.524;74.366;2023-04-12T05:56:15;63.22;;;17.33;;
31224;SDS011;17847;31.524;74.366;2023-04-12T05:58:45;36.83;;;16.65;;
31224;SDS011;17847;31.524;74.366;2023-04-12T06:01:16;36.28;;;16.20;;
31224;SDS011;17847;31.524;74.366;2023-04-12T06:03:47;29.02;;;15.65;;
31224;SDS011;17847;31.524;74.366;2023-04-12T06:06:18;27.83;;;13.50;;
31224;SDS011;17847;31.524;74.366;2023-04-12T06:08:47;24.63;;;13.75;;
31224;SDS011;17847;31.524;74.366;2023-04-12T06:11:17;28.13;;;13.13;;
31224;SDS011;17847;31.524;74.366;2023-04-12T06:13:46;33.22;;;13.20;;
31224;SDS011;17847;31.524;74.366;2023-04-12T06:16:16;27.63;;;12.75;;
31224;SDS011;17847;31.524;74.366;2023-04-12T06:18:46;29.08;;;12.65;;
31224;SDS011;17847;31.524;74.366;2023-04-12T06:21:15;21.98;;;11.27;;
31224;SDS011;17847;31.524;74.366;2023-04-12T06:23:45;23.45;;;10.95;;
31224;SDS011;17847;31.524;74.366;2023-04-12T06:26:16;26.65;;;10.93;;
31224;SDS011;17847;31.524;74.366;2023-04-12T06:28:46;21.67;;;9.63;;
31224;SDS011;17847;31.524;74.366;2023-04-12T06:31:16;30.15;;;10.32;;
31224;SDS011;17847;31.524;74.366;2023-04-12T06:33:46;27.00;;;10.48;;
31224;SDS011;17847;31.524;74.366;2023-04-12T06:36:17;33.17;;;10.85;;
31224;SDS011;17847;31.524;74.366;2023-04-12T06:38:47;23.55;;;10.18;;
31224;SDS011;17847;31.524;74.366;2023-04-12T06:41:18;25.83;;;11.25;;
31224;SDS011;17847;31.524;74.366;2023-04-12T06:43:58;29.90;;;11.77;;
31224;SDS011;17847;31.524;74.366;2023-04-12T06:46:28;27.25;;;11.38;;
31224;SDS011;17847;31.524;74.366;2023-04-12T06:48:57;27.92;;;10.95;;
31224;SDS011;17847;31.524;74.366;2023-04-12T06:51:28;27.67;;;11.32;;
31224;SDS011;17847;31.524;74.366;2023-04-12T06:53:57;22.73;;;10.25;;
31224;SDS011;17847;31.524;74.366;2023-04-12T06:56:26;26.00;;;9.05;;
31224;SDS011;17847;31.524;74.366;2023-04-12T06:58:56;27.65;;;9.38;;
31224;SDS011;17847;31.524;74.366;2023-04-12T07:01:27;23.92;;;9.07;;
31224;SDS011;17847;31.524;74.366;2023-04-12T07:03:57;21.67;;;8.98;;
31224;SDS011;17847;31.524;74.366;2023-04-12T07:06:26;31.83;;;7.80;;
31224;SDS011;17847;31.524;74.366;2023-04-12T07:08:56;24.52;;;6.57;;
31224;SDS011;17847;31.524;74.366;2023-04-12T07:11:26;10.50;;;5.78;;
31224;SDS011;17847;31.524;74.366;2023-04-12T07:13:58;15.10;;;6.13;;
31224;SDS011;17847;31.524;74.366;2023-04-12T07:16:28;33.85;;;7.10;;
31224;SDS011;17847;31.524;74.366;2023-04-12T07:19:01;18.42;;;6.05;;
31224;SDS011;17847;31.524;74.366;2023-04-12T07:21:30;19.85;;;5.72;;
31224;SDS011;17847;31.524;74.366;2023-04-12T07:24:00;18.50;;;5.47;;
31224;SDS011;17847;31.524;74.366;2023-04-12T07:26:31;16.95;;;6.00;;
31224;SDS011;17847;31.524;74.366;2023-04-12T07:29:01;20.38;;;5.85;;
31224;SDS011;17847;31.524;74.366;2023-04-12T07:31:30;14.40;;;4.72;;
31224;SDS011;17847;31.524;74.366;2023-04-12T07:34:00;15.95;;;5.22;;
31224;SDS011;17847;31.524;74.366;2023-04-12T07:36:30;18.63;;;4.45;;
31224;SDS011;17847;31.524;74.366;2023-04-12T07:38:59;12.82;;;5.88;;
31224;SDS011;17847;31.524;74.366;2023-04-12T07:41:30;19.77;;;5.50;;
31224;SDS011;17847;31.524;74.366;2023-04-12T07:44:00;13.48;;;4.93;;
31224;SDS011;17847;31.524;74.366;2023-04-12T07:46:29;18.80;;;5.53;;
31224;SDS011;17847;31.524;74.366;2023-04-12T07:48:59;14.63;;;4.72;;
31224;SDS011;17847;31.524;74.366;2023-04-12T07:51:30;18.17;;;4.53;;
31224;SDS011;17847;31.524;74.366;2023-04-12T07:54:00;19.00;;;5.85;;
31224;SDS011;17847;31.524;74.366;2023-04-12T07:56:32;11.40;;;4.55;;
31224;SDS011;17847;31.524;74.366;2023-04-12T07:59:02;14.55;;;4.60;;
31224;SDS011;17847;31.524;74.366;2023-04-12T08:01:31;18.33;;;4.95;;
31224;SDS011;17847;31.524;74.366;2023-04-12T08:04:01;18.67;;;4.85;;
31224;SDS011;17847;31.524;74.366;2023-04-12T08:06:30;16.90;;;5.47;;
31224;SDS011;17847;31.524;74.366;2023-04-12T08:09:01;12.60;;;4.57;;
31224;SDS011;17847;31.524;74.366;2023-04-12T08:11:30;22.73;;;5.75;;
31224;SDS011;17847;31.524;74.366;2023-04-12T08:14:02;23.60;;;4.75;;
31224;SDS011;17847;31.524;74.366;2023-04-12T08:16:31;22.30;;;4.65;;
31224;SDS011;17847;31.524;74.366;2023-04-12T08:19:03;17.05;;;4.80;;
31224;SDS011;17847;31.524;74.366;2023-04-12T08:21:32;21.38;;;5.55;;
31224;SDS011;17847;31.524;74.366;2023-04-12T08:24:02;26.20;;;5.05;;
31224;SDS011;17847;31.524;74.366;2023-04-12T08:26:32;17.40;;;5.05;;
31224;SDS011;17847;31.524;74.366;2023-04-12T08:29:02;23.05;;;5.43;;
31224;SDS011;17847;31.524;74.366;2023-04-12T08:31:32;26.95;;;5.97;;
31224;SDS011;17847;31.524;74.366;2023-04-12T08:34:01;16.85;;;5.35;;
31224;SDS011;17847;31.524;74.366;2023-04-12T08:36:31;14.90;;;4.97;;
31224;SDS011;17847;31.524;74.366;2023-04-12T08:39:01;27.65;;;5.40;;
31224;SDS011;17847;31.524;74.366;2023-04-12T08:41:30;22.23;;;5.07;;
31224;SDS011;17847;31.524;74.366;2023-04-12T08:44:05;10.57;;;4.95;;
31224;SDS011;17847;31.524;74.366;2023-04-12T08:46:35;12.38;;;4.43;;
31224;SDS011;17847;31.524;74.366;2023-04-12T08:49:04;30.08;;;5.45;;
31224;SDS011;17847;31.524;74.366;2023-04-12T08:51:34;26.80;;;4.65;;
31224;SDS011;17847;31.524;74.366;2023-04-12T08:54:05;20.50;;;5.57;;
31224;SDS011;17847;31.524;74.366;2023-04-12T08:56:35;14.70;;;4.47;;
31224;SDS011;17847;31.524;74.366;2023-04-12T08:59:04;23.48;;;5.00;;
31224;SDS011;17847;31.524;74.366;2023-04-12T09:01:34;21.02;;;4.70;;
31224;SDS011;17847;31.524;74.366;2023-04-12T09:04:05;23.85;;;5.25;;
31224;SDS011;17847;31.524;74.366;2023-04-12T09:06:35;17.42;;;4.22;;
31224;SDS011;17847;31.524;74.366;2023-04-12T09:09:04;13.73;;;4.72;;
31224;SDS011;17847;31.524;74.366;2023-04-12T09:11:35;20.05;;;4.60;;
31224;SDS011;17847;31.524;74.366;2023-04-12T09:14:25;20.10;;;4.47;;
31224;SDS011;17847;31.524;74.366;2023-04-12T09:16:54;16.77;;;4.50;;
31224;SDS011;17847;31.524;74.366;2023-04-12T09:19:32;15.50;;;4.50;;
31224;SDS011;17847;31.524;74.366;2023-04-12T09:22:03;14.77;;;4.50;;
31224;SDS011;17847;31.524;74.366;2023-04-12T09:24:40;15.90;;;4.70;;
31224;SDS011;17847;31.524;74.366;2023-04-12T09:27:19;13.00;;;4.30;;
31224;SDS011;17847;31.524;74.366;2023-04-12T09:29:49;11.38;;;4.65;;
31224;SDS011;17847;31.524;74.366;2023-04-12T09:32:24;22.35;;;4.35;;
31224;SDS011;17847;31.524;74.366;2023-04-12T09:34:57;21.58;;;4.50;;
31224;SDS011;17847;31.524;74.366;2023-04-12T09:37:33;14.65;;;4.45;;
31224;SDS011;17847;31.524;74.366;2023-04-12T09:40:03;12.63;;;4.18;;
31224;SDS011;17847;31.524;74.366;2023-04-12T09:42:35;20.73;;;4.30;;
31224;SDS011;17847;31.524;74.366;2023-04-12T09:45:20;14.38;;;4.55;;
31224;SDS011;17847;31.524;74.366;2023-04-12T09:47:53;10.85;;;3.70;;
31224;SDS011;17847;31.524;74.366;2023-04-12T09:50:24;15.57;;;4.38;;
31224;SDS011;17847;31.524;74.366;2023-04-12T09:52:56;8.85;;;4.00;;
31224;SDS011;17847;31.524;74.366;2023-04-12T09:55:28;12.18;;;4.35;;
31224;SDS011;17847;31.524;74.366;2023-04-12T09:58:02;9.85;;;4.00;;
31224;SDS011;17847;31.524;74.366;2023-04-12T10:00:32;22.00;;;4.47;;
31224;SDS011;17847;31.524;74.366;2023-04-12T10:03:04;15.43;;;4.15;;
31224;SDS011;17847;31.524;74.366;2023-04-12T10:05:35;22.20;;;4.82;;
31224;SDS011;17847;31.524;74.366;2023-04-12T10:08:09;22.80;;;6.28;;
31224;SDS011;17847;31.524;74.366;2023-04-12T10:10:43;17.15;;;4.28;;
31224;SDS011;17847;31.524;74.366;2023-04-12T10:13:14;14.25;;;4.75;;
31224;SDS011;17847;31.524;74.366;2023-04-12T10:15:45;18.77;;;4.85;;
31224;SDS011;17847;31.524;74.366;2023-04-12T10:20:47;19.42;;;4.47;;
31224;SDS011;17847;31.524;74.366;2023-04-12T10:23:19;13.85;;;4.10;;
31224;SDS011;17847;31.524;74.366;2023-04-12T10:25:48;16.85;;;4.35;;
31224;SDS011;17847;31.524;74.366;2023-04-12T10:28:21;15.60;;;4.10;;
31224;SDS011;17847;31.524;74.366;2023-04-12T10:30:51;10.65;;;4.20;;
31224;SDS011;17847;31.524;74.366;2023-04-12T10:33:26;19.15;;;4.88;;
31224;SDS011;17847;31.524;74.366;2023-04-12T10:36:03;10.02;;;4.50;;
31224;SDS011;17847;31.524;74.366;2023-04-12T10:38:50;14.93;;;4.18;;
31224;SDS011;17847;31.524;74.366;2023-04-12T10:41:37;12.60;;;4.07;;
31224;SDS011;17847;31.524;74.366;2023-04-12T10:44:22;19.27;;;3.70;;
31224;SDS011;17847;31.524;74.366;2023-04-12T10:46:54;14.07;;;5.03;;
31224;SDS011;17847;31.524;74.366;2023-04-12T10:49:24;13.63;;;4.72;;
31224;SDS011;17847;31.524;74.366;2023-04-12T10:54:31;15.63;;;4.18;;
31224;SDS011;17847;31.524;74.366;2023-04-12T10:57:07;18.13;;;4.38;;
31224;SDS011;17847;31.524;74.366;2023-04-12T11:00:10;23.40;;;6.13;;
31224;SDS011;17847;31.524;74.366;2023-04-12T11:06:01;17.50;;;6.13;;
31224;SDS011;17847;31.524;74.366;2023-04-12T11:09:20;17.52;;;4.05;;
31224;SDS011;17847;31.524;74.366;2023-04-12T11:11:50;19.08;;;4.25;;
31224;SDS011;17847;31.524;74.366;2023-04-12T11:14:47;17.85;;;4.18;;
31224;SDS011;17847;31.524;74.366;2023-04-12T11:17:24;17.70;;;5.13;;
31224;SDS011;17847;31.524;74.366;2023-04-12T11:19:55;21.30;;;4.70;;
31224;SDS011;17847;31.524;74.366;2023-04-12T11:22:27;12.70;;;4.15;;
31224;SDS011;17847;31.524;74.366;2023-04-12T11:25:00;15.77;;;3.70;;
31224;SDS011;17847;31.524;74.366;2023-04-12T11:27:31;17.25;;;4.43;;
31224;SDS011;17847;31.524;74.366;2023-04-12T11:30:01;16.65;;;3.72;;
31224;SDS011;17847;31.524;74.366;2023-04-12T11:32:34;18.42;;;4.13;;
31224;SDS011;17847;31.524;74.366;2023-04-12T11:35:08;24.55;;;4.60;;
31224;SDS011;17847;31.524;74.366;2023-04-12T11:37:38;16.02;;;4.40;;
31224;SDS011;17847;31.524;74.366;2023-04-12T11:40:07;26.75;;;4.78;;
31224;SDS011;17847;31.524;74.366;2023-04-12T11:42:38;16.30;;;4.03;;
31224;SDS011;17847;31.524;74.366;2023-04-12T11:45:09;22.75;;;4.07;;
31224;SDS011;17847;31.524;74.366;2023-04-12T11:47:45;20.83;;;4.88;;
31224;SDS011;17847;31.524;74.366;2023-04-12T11:50:26;22.27;;;4.55;;
31224;SDS011;17847;31.524;74.366;2023-04-12T11:53:11;20.40;;;4.40;;
31224;SDS011;17847;31.524;74.366;2023-04-12T11:55:46;16.92;;;4.65;;
31224;SDS011;17847;31.524;74.366;2023-04-12T11:58:21;26.10;;;4.00;;
31224;SDS011;17847;31.524;74.366;2023-04-12T12:00:51;13.27;;;3.75;;
31224;SDS011;17847;31.524;74.366;2023-04-12T12:03:23;13.52;;;4.00;;
31224;SDS011;17847;31.524;74.366;2023-04-12T12:05:53;16.63;;;4.00;;
31224;SDS011;17847;31.524;74.366;2023-04-12T12:08:24;12.95;;;4.47;;
31224;SDS011;17847;31.524;74.366;2023-04-12T12:10:53;15.77;;;4.03;;
31224;SDS011;17847;31.524;74.366;2023-04-12T12:13:51;20.77;;;3.90;;
31224;SDS011;17847;31.524;74.366;2023-04-12T12:16:23;14.73;;;5.15;;
31224;SDS011;17847;31.524;74.366;2023-04-12T12:18:55;17.20;;;3.92;;
31224;SDS011;17847;31.524;74.366;2023-04-12T12:21:25;15.95;;;4.78;;
31224;SDS011;17847;31.524;74.366;2023-04-12T12:23:55;16.45;;;4.10;;
31224;SDS011;17847;31.524;74.366;2023-04-12T12:26:26;24.02;;;4.55;;
31224;SDS011;17847;31.524;74.366;2023-04-12T12:28:56;16.92;;;4.45;;
31224;SDS011;17847;31.524;74.366;2023-04-12T12:31:29;13.63;;;4.40;;
31224;SDS011;17847;31.524;74.366;2023-04-12T12:34:00;16.70;;;4.68;;
31224;SDS011;17847;31.524;74.366;2023-04-12T12:36:35;13.40;;;4.40;;
31224;SDS011;17847;31.524;74.366;2023-04-12T12:39:09;19.20;;;4.88;;
31224;SDS011;17847;31.524;74.366;2023-04-12T12:41:40;18.38;;;4.20;;
31224;SDS011;17847;31.524;74.366;2023-04-12T12:44:09;11.85;;;4.55;;
31224;SDS011;17847;31.524;74.366;2023-04-12T12:46:39;18.10;;;4.15;;
31224;SDS011;17847;31.524;74.366;2023-04-12T12:49:12;15.85;;;4.13;;
31224;SDS011;17847;31.524;74.366;2023-04-12T12:51:41;15.02;;;4.97;;
31224;SDS011;17847;31.524;74.366;2023-04-12T12:54:11;9.90;;;4.38;;
31224;SDS011;17847;31.524;74.366;2023-04-12T12:56:51;25.35;;;4.80;;
31224;SDS011;17847;31.524;74.366;2023-04-12T12:59:21;17.25;;;4.88;;
31224;SDS011;17847;31.524;74.366;2023-04-12T13:01:52;19.08;;;5.03;;
31224;SDS011;17847;31.524;74.366;2023-04-12T13:04:21;19.73;;;5.88;;
31224;SDS011;17847;31.524;74.366;2023-04-12T13:06:51;18.88;;;4.63;;
31224;SDS011;17847;31.524;74.366;2023-04-12T13:09:20;20.23;;;6.03;;
31224;SDS011;17847;31.524;74.366;2023-04-12T13:11:50;23.02;;;5.07;;
31224;SDS011;17847;31.524;74.366;2023-04-12T13:14:20;19.98;;;5.60;;
31224;SDS011;17847;31.524;74.366;2023-04-12T13:16:49;15.32;;;5.13;;
31224;SDS011;17847;31.524;74.366;2023-04-12T13:19:19;19.20;;;5.55;;
31224;SDS011;17847;31.524;74.366;2023-04-12T13:21:48;29.70;;;5.25;;
31224;SDS011;17847;31.524;74.366;2023-04-12T13:24:20;21.58;;;5.60;;
31224;SDS011;17847;31.524;74.366;2023-04-12T13:26:49;22.00;;;5.20;;
31224;SDS011;17847;31.524;74.366;2023-04-12T13:29:19;18.85;;;5.28;;
31224;SDS011;17847;31.524;74.366;2023-04-12T13:31:49;26.45;;;5.78;;
31224;SDS011;17847;31.524;74.366;2023-04-12T13:34:18;21.77;;;5.70;;
31224;SDS011;17847;31.524;74.366;2023-04-12T13:36:48;18.25;;;6.05;;
31224;SDS011;17847;31.524;74.366;2023-04-12T13:39:18;27.48;;;5.70;;
31224;SDS011;17847;31.524;74.366;2023-04-12T13:41:48;21.15;;;6.28;;
31224;SDS011;17847;31.524;74.366;2023-04-12T13:44:18;22.85;;;6.38;;
31224;SDS011;17847;31.524;74.366;2023-04-12T13:46:47;26.88;;;7.28;;
31224;SDS011;17847;31.524;74.366;2023-04-12T13:49:17;17.20;;;6.38;;
31224;SDS011;17847;31.524;74.366;2023-04-12T13:51:46;16.52;;;6.25;;
31224;SDS011;17847;31.524;74.366;2023-04-12T13:54:15;22.25;;;6.32;;
31224;SDS011;17847;31.524;74.366;2023-04-12T13:56:45;25.35;;;6.30;;
31224;SDS011;17847;31.524;74.366;2023-04-12T13:59:15;20.13;;;5.60;;
31224;SDS011;17847;31.524;74.366;2023-04-12T14:01:45;23.02;;;5.63;;
31224;SDS011;17847;31.524;74.366;2023-04-12T14:04:14;33.30;;;6.90;;
31224;SDS011;17847;31.524;74.366;2023-04-12T14:06:44;24.67;;;6.18;;
31224;SDS011;17847;31.524;74.366;2023-04-12T14:09:23;17.70;;;5.63;;
31224;SDS011;17847;31.524;74.366;2023-04-12T14:11:57;21.02;;;5.57;;
31224;SDS011;17847;31.524;74.366;2023-04-12T14:14:28;18.23;;;5.47;;
31224;SDS011;17847;31.524;74.366;2023-04-12T14:16:59;16.60;;;5.35;;
31224;SDS011;17847;31.524;74.366;2023-04-12T14:19:29;16.38;;;5.40;;
31224;SDS011;17847;31.524;74.366;2023-04-12T14:21:59;16.83;;;5.43;;
31224;SDS011;17847;31.524;74.366;2023-04-12T14:24:30;22.08;;;6.50;;
31224;SDS011;17847;31.524;74.366;2023-04-12T14:27:00;16.80;;;5.45;;
31224;SDS011;17847;31.524;74.366;2023-04-12T14:29:32;14.88;;;5.68;;
31224;SDS011;17847;31.524;74.366;2023-04-12T14:32:01;22.52;;;5.45;;
31224;SDS011;17847;31.524;74.366;2023-04-12T14:34:32;17.33;;;5.45;;
31224;SDS011;17847;31.524;74.366;2023-04-12T14:37:01;18.73;;;7.57;;
31224;SDS011;17847;31.524;74.366;2023-04-12T14:39:31;25.30;;;6.28;;
31224;SDS011;17847;31.524;74.366;2023-04-12T14:42:01;21.35;;;6.35;;
31224;SDS011;17847;31.524;74.366;2023-04-12T14:44:31;21.58;;;6.00;;
31224;SDS011;17847;31.524;74.366;2023-04-12T14:47:00;20.45;;;6.03;;
31224;SDS011;17847;31.524;74.366;2023-04-12T14:49:29;16.80;;;6.30;;
31224;SDS011;17847;31.524;74.366;2023-04-12T14:52:00;20.52;;;6.28;;
31224;SDS011;17847;31.524;74.366;2023-04-12T14:54:30;18.75;;;6.60;;
31224;SDS011;17847;31.524;74.366;2023-04-12T14:57:00;14.15;;;5.88;;
31224;SDS011;17847;31.524;74.366;2023-04-12T14:59:31;23.73;;;6.22;;
31224;SDS011;17847;31.524;74.366;2023-04-12T15:02:02;19.83;;;6.30;;
31224;SDS011;17847;31.524;74.366;2023-04-12T15:04:31;23.30;;;7.28;;
31224;SDS011;17847;31.524;74.366;2023-04-12T15:07:01;18.17;;;6.40;;